Indian Springs, Indiana
Current Conditions -  °F | °C
As of 5:55 PM on Friday 19 Dec 2014 (Local Time) from KDCY Reporting Station
Clear Clear  
Wind Chill: 29°   Ceiling: Unl
Heat Index: 29°   Visibility: 10mi
Dew Point: 25°   Wind: 0mph
Humidity: 83%   Direction: NA
Pressure: 30.3"   Gusts: NA
Location:  38.6262°N, 86.7615°W
Report Text: KDCY 192355Z AUTO 00000KT 10SM CLR M01/M04 A3030 RMK AO2 T10151040 10006 21020
Loading
Personal Weather Stations






























Interactive Weather Map New forecast layout! Learn more

10-Day Weather Forecast

Advertisements
Track Severe Weather on mobile